Latest Coastal Weather Observations for Moruya Airport

IDN60701

Issued at 7:51 pm EDT Wednesday 10 February 2016 (issued every 10 minutes, with the page automatically refreshed every 10 minutes)

About coastal observations | Map of coastal stations | Coastal observations for NSW | Marine services | Other Formats
Station Details ID: 069148 Name: MORUYA AIRPORT AWS Lat: -35.90 Lon: 150.14 Height: 4.0 m
Data from the previous 72 hours. | See also: Recent months at Moruya Airport
Date/Time
EDT
Temp

°C
Wind Pressure Rain
since 9am
mm
Weather Cloud Vis
km
Sea
Height
m
Swell
Dir
 
Speed
knots
Gust
knots
hPa Trend Height
m
Period
s
Dir
10/07:30pm 24.1 SE 6 8 1013.1 - 0.0 - - 10 - - - -
10/07:00pm 24.8 ESE 7 9 1012.5 - 0.0 - - 10 - - - -
10/06:30pm 24.6 E 7 9 1012.4 - 0.0 - Partly cloudy 10 - - - -
10/06:00pm 24.1 ESE 6 10 1011.8 - 0.0 - Partly cloudy 10 - - - -
10/05:30pm 24.4 E 6 8 1011.4 - 0.0 - - 7 - - - -
10/05:00pm 24.9 NE 10 13 1010.8 - 0.0 - - 9 - - - -
10/04:30pm 26.5 NE 11 15 1010.6 - 0.0 - - 10 - - - -
10/04:00pm 26.7 NE 11 14 1010.3 - 0.0 - - 10 - - - -
10/03:30pm 26.2 NE 12 17 1010.4 - 0.0 - - 10 - - - -
10/03:00pm 26.6 NE 13 18 1010.5 - 0.0 - - 10 - - - -
10/02:30pm 26.8 NE 14 19 1010.7 - 0.0 - - 10 - - - -
10/02:00pm 26.1 NE 13 17 1010.9 - 0.0 - - 10 - - - -
10/01:30pm 26.0 NE 12 16 1011.2 - 0.0 - - 10 - - - -
10/01:00pm 25.7 NE 11 17 1011.5 - 0.0 - - 10 - - - -
10/12:30pm 26.0 NE 13 17 1012.0 - 0.0 - - 10 - - - -
10/12:00pm 25.6 NE 13 15 1012.4 - 0.0 - - 10 - - - -
10/11:30am 25.4 NE 11 14 1012.8 - 0.0 - - 10 - - - -
10/11:00am 24.6 NE 12 14 1013.2 - 0.0 - - 10 - - - -
10/10:30am 24.3 NE 9 11 1013.4 - 0.0 - - 10 - - - -
10/10:00am 24.7 N 7 10 1013.7 - 0.0 - - 10 - - - -
10/09:30am 23.8 N 6 9 1014.2 - 0.0 - - 10 - - - -
10/09:00am 22.2 NNE 6 9 1014.3 - 0.0 - - 10 - - - -
10/08:30am 20.4 NE 5 7 1014.4 - 0.0 - - 10 - - - -
10/08:00am 18.2 NW 3 5 1014.5 - 0.0 - - 10 - - - -
10/07:30am 17.0 NW 3 5 1014.6 - 0.0 - - 10 - - - -
10/07:00am 15.7 NW 5 6 1014.4 - 0.0 - - 10 - - - -
10/06:36am 15.2 NW 5 6 1014.3 - 0.0 - - 10 - - - -
10/06:30am 15.2 NW 5 6 1014.3 - 0.0 - - 10 - - - -
10/06:00am 14.5 CALM 0 0 1014.4 - 0.0 - - 0.3 - - - -
10/05:30am 14.7 CALM 0 0 1014.5 - 0.0 - - 5 - - - -
10/05:21am 14.2 CALM 0 0 1014.5 - 0.0 - - 5 - - - -
10/05:00am 15.1 NW 3 5 1014.5 - 0.0 - - 10 - - - -
10/04:53am 15.3 NW 4 5 1014.4 - 0.0 - - 10 - - - -
10/04:30am 14.5 NW 2 3 1014.5 - 0.0 - - 6 - - - -
10/04:00am 15.3 N 3 3 1014.7 - 0.0 - - 4 - - - -
10/03:55am 15.4 N 3 3 1014.8 - 0.0 - - 5 - - - -
10/03:52am 15.3 N 3 3 1014.8 - 0.0 - - 6 - - - -
10/03:40am 15.1 CALM 0 3 1014.9 - 0.0 - - 5 - - - -
10/03:30am 15.9 CALM 0 0 1015.0 - 0.0 - - 10 - - - -
10/03:00am 16.2 NW 5 5 1015.3 - 0.0 - - 10 - - - -
10/02:30am 16.4 NNW 5 7 1015.7 - 0.0 - - 10 - - - -
10/02:00am 16.3 NW 4 6 1016.2 - 0.0 - - 10 - - - -
10/01:30am 16.4 NNW 4 5 1016.5 - 0.0 - - 9 - - - -
10/01:00am 16.9 NW 4 5 1017.1 - 0.0 - - 6 - - - -
10/12:30am 16.9 NNW 4 5 1017.5 - 0.0 - - 7 - - - -
10/12:00am 17.1 NNW 2 4 1018.0 - 0.0 - - 6 - - - -
 
Date/Time
EDT
Temp

°C
Wind Pressure Rain
since 9am
mm
Weather Cloud Vis
km
Sea
Height
m
Swell
Dir
 
Speed
knots
Gust
knots
hPa Trend Height
m
Period
s
Dir
09/11:30pm 17.5 NW 3 4 1018.3 - 0.0 - - 8 - - - -
09/11:00pm 17.7 NW 4 4 1018.6 - 0.0 - - 9 - - - -
09/10:30pm 17.9 NW 4 5 1018.9 - 0.0 - - 10 - - - -
09/10:00pm 18.1 NW 4 5 1019.0 - 0.0 - - 10 - - - -
09/09:30pm 18.3 NNW 2 3 1018.9 - 0.0 - - 10 - - - -
09/09:00pm 19.0 NNW 3 4 1018.8 - 0.0 - - 10 - - - -
09/08:30pm 20.3 N 4 5 1018.8 - 0.0 - - 10 - - - -
09/08:00pm 21.5 NE 5 6 1018.8 - 0.0 - - 10 - - - -
09/07:30pm 22.1 NE 6 8 1018.7 - 0.0 - - 10 - - - -
09/07:00pm 22.7 ENE 6 7 1018.6 - 0.0 - - 10 - - - -
09/06:30pm 23.0 ENE 6 8 1018.5 - 0.0 - - 10 - - - -
09/06:00pm 23.5 ENE 7 9 1018.5 - 0.0 - - 7 - - - -
09/05:30pm 23.4 E 7 9 1018.6 - 0.0 - - 10 - - - -
09/05:00pm 24.0 ENE 8 9 1018.8 - 0.0 - - 10 - - - -
09/04:30pm 23.7 E 8 11 1019.0 - 0.0 - - 10 - - - -
09/04:00pm 24.0 E 9 11 1019.3 - 0.0 - - 10 - - - -
09/03:30pm 24.1 E 9 11 1019.6 - 0.0 - - 10 - - - -
09/03:00pm 23.8 E 9 11 1019.9 - 0.0 - - 10 - - - -
09/02:30pm 23.8 E 9 11 1020.2 - 0.0 - - 10 - - - -
09/02:00pm 23.8 E 8 11 1020.5 - 0.0 - - 10 - - - -
09/01:30pm 23.9 E 9 12 1020.7 - 0.0 - - 10 - - - -
09/01:00pm 23.8 ESE 9 11 1021.0 - 0.0 - - 10 - - - -
09/12:30pm 23.3 ESE 9 12 1021.2 - 0.0 - - 10 - - - -
09/12:00pm 23.8 SE 10 13 1021.5 - 0.0 - - 10 - - - -
09/11:30am 23.5 SE 9 12 1021.8 - 0.0 - - 10 - - - -
09/11:00am 23.2 SE 10 14 1021.9 - 0.0 - - 10 - - - -
09/10:30am 22.5 SE 10 14 1021.9 - 0.0 - Partly cloudy 10 - - - -
09/10:00am 23.1 S 8 11 1022.0 - 0.0 - Partly cloudy 10 - - - -
09/09:30am 21.7 S 8 11 1022.0 - 0.0 - Partly cloudy 10 - - - -
09/09:00am 21.8 S 8 13 1021.8 - 0.0 - Mostly clear 10 - - - -
09/08:30am 20.4 SSW 4 6 1021.8 - 0.0 - Partly cloudy 10 - - - -
09/08:00am 19.8 SSW 5 7 1021.6 - 0.0 - Partly cloudy 10 - - - -
09/07:30am 19.1 SW 5 7 1021.2 - 0.0 - - 10 - - - -
09/07:00am 19.2 WSW 4 6 1020.8 - 0.0 - Partly cloudy 10 - - - -
09/06:30am 19.4 S 6 9 1020.5 - 0.0 - - 10 - - - -
09/06:00am 19.7 S 9 12 1020.2 - 0.0 - - 10 - - - -
09/05:30am 20.3 S 11 16 1019.9 - 0.0 - Partly cloudy 10 - - - -
09/05:00am 20.3 S 9 12 1019.6 - 0.0 - Partly cloudy 9 - - - -
09/04:30am 19.9 SSW 5 8 1019.5 - 0.0 - Partly cloudy 8 - - - -
09/04:00am 19.1 WSW 3 4 1019.3 - 0.0 - - 7 - - - -
09/03:55am 19.0 WSW 3 5 1019.3 - 0.0 - - 7 - - - -
09/03:36am 19.4 WSW 1 4 1019.4 - 0.0 - - 5 - - - -
09/03:30am 19.3 W 3 4 1019.4 - 0.0 - - 7 - - - -
09/03:00am 20.1 W 3 4 1019.4 - 0.0 - Mostly clear 7 - - - -
09/02:57am 20.1 W 1 4 1019.5 - 0.0 - Partly cloudy 6 - - - -
09/02:38am 20.5 WNW 1 3 1019.6 - 0.0 - Partly cloudy 5 - - - -
09/02:30am 20.6 W 1 3 1019.7 - 0.0 - Partly cloudy 7 - - - -
09/02:00am 21.0 CALM 0 0 1019.8 - 0.0 - Partly cloudy 9 - - - -
09/01:50am 21.0 CALM 0 0 1019.9 - 0.0 - Partly cloudy 5 - - - -
09/01:30am 21.1 CALM 0 3 1020.0 - 0.0 - Partly cloudy 7 - - - -
09/01:00am 21.3 WSW 2 4 1020.2 - 0.0 - Partly cloudy 10 - - - -
09/12:30am 21.4 WSW 4 5 1020.3 - 0.0 - Partly cloudy 6 - - - -
09/12:00am 21.9 S 5 7 1020.4 - 0.0 - Mostly clear 6 - - - -
 
Date/Time
EDT
Temp

°C
Wind Pressure Rain
since 9am
mm
Weather Cloud Vis
km
Sea
Height
m
Swell
Dir
 
Speed
knots
Gust
knots
hPa Trend Height
m
Period
s
Dir
08/11:30pm 21.6 SSE 4 7 1020.4 - 0.0 - Partly cloudy 8 - - - -
08/11:00pm 21.8 S 8 11 1020.7 - 0.0 - Partly cloudy 10 - - - -
08/10:30pm 21.7 S 8 10 1020.7 - 0.0 - Partly cloudy 7 - - - -
08/10:00pm 22.0 S 8 11 1020.5 - 0.0 - Partly cloudy 8 - - - -
08/09:30pm 22.1 S 4 7 1020.2 - 0.0 - Partly cloudy 9 - - - -
08/09:00pm 21.5 SSW 4 6 1019.9 - 0.0 - - 10 - - - -
08/08:30pm 22.1 SSW 4 6 1019.6 - 0.0 - - 9 - - - -
08/08:00pm 22.8 SSE 6 9 1019.4 - 0.0 - - 10 - - - -
08/07:30pm 23.5 SSE 8 11 1019.1 - 0.0 - - 10 - - - -
08/07:00pm 23.7 SSE 9 13 1018.9 - 0.0 - - 10 - - - -
08/06:30pm 24.5 SSE 9 13 1018.5 - 0.0 - - 10 - - - -
08/06:00pm 24.7 SSE 8 10 1018.3 - 0.0 - - 10 - - - -
08/05:30pm 25.1 SE 7 9 1018.4 - 0.0 - - 10 - - - -
08/05:00pm 25.0 ESE 7 8 1018.2 - 0.0 - - 10 - - - -
08/04:30pm 25.2 ESE 6 9 1018.2 - 0.0 - - 10 - - - -
08/04:00pm 25.5 E 7 9 1018.2 - 0.0 - - 10 - - - -
08/03:30pm 25.1 ENE 7 9 1018.2 - 0.0 - - 10 - - - -
08/03:00pm 25.7 ENE 7 9 1018.1 - 0.0 - - 10 - - - -
08/02:30pm 25.1 ENE 8 10 1018.4 - 0.0 - - 10 - - - -
08/02:00pm 24.7 ENE 9 10 1018.4 - 0.0 - - 10 - - - -
08/01:30pm 24.8 ENE 9 10 1018.5 - 0.0 - - 10 - - - -
08/01:00pm 24.6 ENE 7 8 1018.6 - 0.0 - - 10 - - - -
08/12:30pm 23.9 ENE 8 9 1018.8 - 0.0 - - 10 - - - -
08/12:00pm 24.5 ENE 8 9 1019.0 - 0.0 - - 10 - - - -
08/11:30am 23.9 ENE 7 9 1019.1 - 0.0 - - 10 - - - -
08/11:00am 24.0 ENE 5 7 1019.2 - 0.0 - - 10 - - - -
08/10:30am 23.7 E 5 7 1019.2 - 0.0 - - 10 - - - -
08/10:00am 23.5 SE 3 5 1019.2 - 0.0 - - 10 - - - -
08/09:30am 22.3 SSW 3 5 1019.1 - 0.0 - - 10 - - - -
08/09:00am 20.6 SW 5 6 1019.1 - 0.0 - - 10 - - - -
08/08:30am 18.9 SW 4 5 1018.8 - 0.0 - - 10 - - - -
08/08:00am 17.8 CALM 0 0 1018.6 - 0.0 - - 10 - - - -
08/07:30am 16.8 CALM 0 0 1018.5 - 0.0 - - 10 - - - -
08/07:21am 16.1 CALM 0 0 1018.4 - 0.0 - - 6 - - - -
08/07:00am 14.7 CALM 0 0 1018.3 - 0.0 - - 0.6 - - - -
08/06:30am 14.0 CALM 0 0 1018.1 - 0.0 - - 0.5 - - - -
08/06:00am 14.8 CALM 0 0 1017.9 - 0.0 - - 0.5 - - - -
08/05:30am 14.2 CALM 0 0 1017.8 - 0.0 - - 0.2 - - - -
08/05:00am 13.8 CALM 0 0 1017.8 - 0.0 - - 0.2 - - - -
08/04:30am 15.0 CALM 0 0 1017.8 - 0.0 - - 5 - - - -
08/04:00am 15.0 CALM 0 3 1017.7 - 0.0 - - 2 - - - -
08/03:30am 14.8 CALM 0 0 1017.8 - 0.0 - - 0.2 - - - -
08/03:00am 15.4 CALM 0 0 1018.0 - 0.0 - - 2 - - - -
08/02:30am 15.1 CALM 0 0 1018.2 - 0.0 - - 0.5 - - - -
08/02:00am 15.5 CALM 0 0 1018.4 - 0.0 - - 0.3 - - - -
08/01:39am 16.1 CALM 0 1 1018.5 - 0.0 - - 4 - - - -
08/01:30am 15.5 WNW 1 3 1018.5 - 0.0 - - 10 - - - -
08/01:00am 16.9 CALM 0 0 1018.9 - 0.0 - - 10 - - - -
08/12:30am 16.6 CALM 0 0 1019.0 - 0.0 - - 10 - - - -
08/12:00am 16.7 CALM 0 0 1018.9 - 0.0 - - 10 - - - -
 
Date/Time
EDT
Temp

°C
Wind Pressure Rain
since 9am
mm
Weather Cloud Vis
km
Sea
Height
m
Swell
Dir
 
Speed
knots
Gust
knots
hPa Trend Height
m
Period
s
Dir
07/11:30pm 17.2 CALM 0 0 1018.8 - 0.0 - - 10 - - - -
07/11:00pm 16.8 CALM 0 0 1018.7 - 0.0 - - 7 - - - -
07/10:30pm 17.0 CALM 0 0 1018.6 - 0.0 - - 7 - - - -
07/10:24pm 17.3 CALM 0 0 1018.6 - 0.0 - - 7 - - - -
07/10:10pm 17.8 CALM 0 0 1018.7 - 0.0 - - 5 - - - -
07/10:00pm 17.9 CALM 0 0 1018.6 - 0.0 - - 7 - - - -
07/09:30pm 18.4 CALM 0 0 1018.3 - 0.0 - - 7 - - - -
07/09:14pm 18.9 CALM 0 0 1018.1 - 0.0 - - 8 - - - -
07/09:00pm 19.1 CALM 0 0 1018.0 - 0.0 - - 6 - - - -
07/08:55pm 19.4 CALM 0 2 1017.9 - 0.0 - - 5 - - - -
07/08:51pm 19.6 N 1 3 1017.9 - 0.0 - - 7 - - - -
07/08:30pm 20.6 N 3 4 1017.7 - 0.0 - - 6 - - - -
07/08:26pm 20.8 N 3 4 1017.7 - 0.0 - - 5 - - - -
07/08:00pm 22.4 NNE 6 8 1017.4 - 0.0 - - 6 - - - -

Other Formats:

Comma delimited format used in spreadsheet applications
http://www.bom.gov.au/fwo/IDN60701/IDN60701.95937.axf

JavaScript Object Notation format (JSON) in row-major order
http://www.bom.gov.au/fwo/IDN60701/IDN60701.95937.json